Tridens — PBVO — position and weather

sailwx.info

Track history (hours):
 
Tides and Currents Weather Stations Pressure Air Temp Water Temp Dewpoint Dewpoint Depression Visibility Wind Speed Wind Dir Waves Ship Positions

Oceanographic research ship Tridens (Netherlands)

Detailed information on ship capabilities available from University of Delaware's Ocean Information Center.

Last reported at 2020-Jul-15 11:58 UTC. Time now 2020-Jul-15 18:43 UTC.
Position N 52°06' E 004°16'.

Length 74 m; beam 14 m.

Type: Other ship. MMSI: 244033000.

Date/timePositionNaut miles runAvg speedWind from/ knotsBaromVisibWave heightAir tempDewpointWater temp
2020-Jul-15 11:58N 52°06' E 004°16'0 0.0
2020-Jul-15 10:28N 52°06' E 004°16'0 0.0
2020-Jul-15 06:00N 52°06' E 004°16'0 0.0
2020-Jul-15 04:30N 52°06' E 004°16'0 0.0
2020-Jul-15 04:00N 52°06' E 004°16'0 0.0
2020-Jul-15 02:30N 52°06' E 004°16'0 0.0
2020-Jul-15 00:30N 52°06' E 004°16'0 0.0
2020-Jul-14 23:30N 52°06' E 004°16'0 0.0
2020-Jul-14 21:30N 52°06' E 004°16'0 0.0
2020-Jul-14 21:00N 52°06' E 004°16'0 0.0
2020-Jul-14 20:30N 52°06' E 004°16'0 0.0
2020-Jul-14 18:27N 52°06' E 004°16'0 0.0
2020-Jul-14 15:57N 52°06' E 004°16'0 0.0
2020-Jul-14 15:30N 52°06' E 004°16'0 0.0
2020-Jul-14 14:00N 52°06' E 004°16'0 0.0
2020-Jul-14 13:27N 52°06' E 004°16'0 0.0
2020-Jul-14 06:59N 52°06' E 004°16'0 0.0
2020-Jul-14 06:26N 52°06' E 004°16'0 0.0
2020-Jul-14 04:59N 52°06' E 004°16'0 0.0
2020-Jul-14 03:29N 52°06' E 004°16'0 0.0
2020-Jul-14 02:29N 52°06' E 004°16'0 0.0
2020-Jul-14 01:29N 52°06' E 004°16'0 0.0
2020-Jul-14 00:29N 52°06' E 004°16'0 0.0
2020-Jul-13 17:59N 52°06' E 004°16'0 0.0
2020-Jul-13 16:59N 52°06' E 004°16'0 0.0
2020-Jul-13 13:29N 52°06' E 004°16'0 0.0
2020-Jul-13 12:58N 52°06' E 004°16'7 1.5
2020-Jul-13 08:00N 52°12' E 004°09'5510.7
2020-Jul-13 02:51N 52°43' E 002°54'4710.8
2020-Jul-12 22:30N 53°09' E 001°49'510.3
2020-Jul-12 22:00N 53°13' E 001°44'28 9.4
2020-Jul-12 19:00N 53°32' E 001°10'610.0
2020-Jul-12 18:23N 53°35' E 001°00'27 7.1
2020-Jul-12 14:30N 53°56' E 000°29'9 8.6
2020-Jul-12 13:30N 54°00' E 000°42'1010.3
2020-Jul-12 12:30N 54°06' E 000°56'88 3.4
2020-Jul-11 11:00N 55°02' W 000°60'  
2020-Jul-08 13:51N 56°23' W 002°20'55 6.3
2020-Jul-08 05:09N 57°12' W 001°34'4 1.9
2020-Jul-08 02:59N 57°08' W 001°32'332 8.5
2020-Jul-06 11:55N 52°33' E 003°50'910.0
2020-Jul-06 11:00N 52°24' E 003°54'1111.3
2020-Jul-06 10:00N 52°15' E 004°04'611.7
2020-Jul-06 09:30N 52°10' E 004°10'6 5.4
2020-Jul-06 08:29N 52°06' E 004°16'0 0.0
2020-Jul-06 07:59N 52°06' E 004°16'0 0.0
2020-Jul-06 04:29N 52°06' E 004°16'0 0.0
2020-Jul-06 02:59N 52°06' E 004°16'0 0.0
2020-Jul-06 02:29N 52°06' E 004°16'0 0.0
2020-Jul-06 01:29N 52°06' E 004°16'0 0.0
2020-Jul-05 21:59N 52°06' E 004°16'0 0.0
2020-Jul-05 19:59N 52°06' E 004°16'0 0.0
2020-Jul-05 15:58N 52°06' E 004°16'0 0.0
2020-Jul-05 15:28N 52°06' E 004°16'0 0.0
2020-Jul-05 12:28N 52°06' E 004°16'  
Track history (hours):
 
Tides and Currents Weather Stations Pressure Air Temp Water Temp Dewpoint Dewpoint Depression Visibility Wind Speed Wind Dir Waves Ship Positions

Oceanographic research ship Tridens (Netherlands)

Detailed information on ship capabilities available from University of Delaware's Ocean Information Center.

Last reported at 2020-Jul-15 11:58 UTC. Time now 2020-Jul-15 18:43 UTC.
Position N 52°06' E 004°16'.

Length 74 m; beam 14 m.

Type: Other ship. MMSI: 244033000.

Date/timePositionNaut miles runAvg speedWind from/ knotsBaromVisibWave heightAir tempDewpointWater temp
2020-Jul-15 11:58N 52°06' E 004°16'0 0.0
2020-Jul-15 10:28N 52°06' E 004°16'0 0.0
2020-Jul-15 06:00N 52°06' E 004°16'0 0.0
2020-Jul-15 04:30N 52°06' E 004°16'0 0.0
2020-Jul-15 04:00N 52°06' E 004°16'0 0.0
2020-Jul-15 02:30N 52°06' E 004°16'0 0.0
2020-Jul-15 00:30N 52°06' E 004°16'0 0.0
2020-Jul-14 23:30N 52°06' E 004°16'0 0.0
2020-Jul-14 21:30N 52°06' E 004°16'0 0.0
2020-Jul-14 21:00N 52°06' E 004°16'0 0.0
2020-Jul-14 20:30N 52°06' E 004°16'0 0.0
2020-Jul-14 18:27N 52°06' E 004°16'0 0.0
2020-Jul-14 15:57N 52°06' E 004°16'0 0.0
2020-Jul-14 15:30N 52°06' E 004°16'0 0.0
2020-Jul-14 14:00N 52°06' E 004°16'0 0.0
2020-Jul-14 13:27N 52°06' E 004°16'0 0.0
2020-Jul-14 06:59N 52°06' E 004°16'0 0.0
2020-Jul-14 06:26N 52°06' E 004°16'0 0.0
2020-Jul-14 04:59N 52°06' E 004°16'0 0.0
2020-Jul-14 03:29N 52°06' E 004°16'0 0.0
2020-Jul-14 02:29N 52°06' E 004°16'0 0.0
2020-Jul-14 01:29N 52°06' E 004°16'0 0.0
2020-Jul-14 00:29N 52°06' E 004°16'0 0.0
2020-Jul-13 17:59N 52°06' E 004°16'0 0.0
2020-Jul-13 16:59N 52°06' E 004°16'0 0.0
2020-Jul-13 13:29N 52°06' E 004°16'0 0.0
2020-Jul-13 12:58N 52°06' E 004°16'7 1.5
2020-Jul-13 08:00N 52°12' E 004°09'5510.7
2020-Jul-13 02:51N 52°43' E 002°54'4710.8
2020-Jul-12 22:30N 53°09' E 001°49'510.3
2020-Jul-12 22:00N 53°13' E 001°44'28 9.4
2020-Jul-12 19:00N 53°32' E 001°10'610.0
2020-Jul-12 18:23N 53°35' E 001°00'27 7.1
2020-Jul-12 14:30N 53°56' E 000°29'9 8.6
2020-Jul-12 13:30N 54°00' E 000°42'1010.3
2020-Jul-12 12:30N 54°06' E 000°56'88 3.4
2020-Jul-11 11:00N 55°02' W 000°60'  
2020-Jul-08 13:51N 56°23' W 002°20'55 6.3
2020-Jul-08 05:09N 57°12' W 001°34'4 1.9
2020-Jul-08 02:59N 57°08' W 001°32'332 8.5
2020-Jul-06 11:55N 52°33' E 003°50'910.0
2020-Jul-06 11:00N 52°24' E 003°54'1111.3
2020-Jul-06 10:00N 52°15' E 004°04'611.7
2020-Jul-06 09:30N 52°10' E 004°10'6 5.4
2020-Jul-06 08:29N 52°06' E 004°16'0 0.0
2020-Jul-06 07:59N 52°06' E 004°16'0 0.0
2020-Jul-06 04:29N 52°06' E 004°16'0 0.0
2020-Jul-06 02:59N 52°06' E 004°16'0 0.0
2020-Jul-06 02:29N 52°06' E 004°16'0 0.0
2020-Jul-06 01:29N 52°06' E 004°16'0 0.0
2020-Jul-05 21:59N 52°06' E 004°16'0 0.0
2020-Jul-05 19:59N 52°06' E 004°16'0 0.0
2020-Jul-05 15:58N 52°06' E 004°16'0 0.0
2020-Jul-05 15:28N 52°06' E 004°16'0 0.0
2020-Jul-05 12:28N 52°06' E 004°16'  

Dump ship's entire track history